Ulmodrome de Limoux

METAR LFMK TAF LFMK
3 °C
°C
-
°C
27m
Wiek
18:27:13
LT
17:27
UTC
0 ft

1.000

2.000

3.000

4.000

5.000

FEW 2.600
SCT 3.800
OVC 4.600
VFR
<?= Yii::t('app', 'Wind direction') ?> <?= Yii::t('app', 'of'); ?>
270°
08:10
Wschód słońca
75%
Wilgotność
Siła wiatru
Zamknięte/Śnieg
Zasięg wzroku na RWY
Stan RWY
Widzialność pionowa
Min. widoczność
CAVOK
Trend
Korekta
Raport specjalny
1024 hPa
QNH
METAR LFMK 281700Z AUTO 27011KT 240V320 9999 FEW026 SCT038 OVC046 03/M01 Q1024 NOSIG
Pochmurny
0 kt
0 kt
18:00
VFR
9 kt
19:00
VFR
9 kt
20:00
VFR
9 kt
21:00
VFR
9 kt
22:00
VFR
9 kt
23:00
VFR
9 kt
00:00
VFR
9 kt
10 km+
Widoczność
4.600 ft
Sufit
11 kt
Wiatr
metar-taf.com/FR-0329

Metar-Taf.com

Dekoder wizualny

My i strony trzecie śledzimy Twoje zachowanie internetowe na naszej stronie za pomocą plików cookie. Jeśli kontynuujesz, zakładamy, że zgadzasz się z naszymi polityka plików cookie.